sensor_id;sensor_type;location;lat;lon;timestamp;pressure;altitude;pressure_sealevel;temperature;humidity
46690;BME280;32423;45.398;10.874;2023-07-31T04:55:49;100482.22;;;25.09;68.05
46690;BME280;32423;45.398;10.874;2023-07-31T04:58:41;100484.63;;;25.34;67.59
46690;BME280;32423;45.398;10.874;2023-07-31T05:01:31;100472.66;;;25.10;68.27
46690;BME280;32423;45.398;10.874;2023-07-31T05:04:20;100474.50;;;24.93;69.41
46690;BME280;32423;45.398;10.874;2023-07-31T05:07:10;100485.41;;;25.07;69.09
46690;BME280;32423;45.398;10.874;2023-07-31T05:10:02;100488.81;;;25.45;67.29
46690;BME280;32423;45.398;10.874;2023-07-31T05:12:54;100488.06;;;25.41;67.45
46690;BME280;32423;45.398;10.874;2023-07-31T05:15:46;100491.88;;;25.54;67.08
46690;BME280;32423;45.398;10.874;2023-07-31T05:18:35;100495.16;;;25.73;66.31
46690;BME280;32423;45.398;10.874;2023-07-31T05:21:27;100500.63;;;25.80;66.36
46690;BME280;32423;45.398;10.874;2023-07-31T05:24:20;100502.78;;;25.92;65.39
46690;BME280;32423;45.398;10.874;2023-07-31T05:27:09;100502.97;;;26.05;64.68
46690;BME280;32423;45.398;10.874;2023-07-31T05:30:01;100510.41;;;26.11;64.39
46690;BME280;32423;45.398;10.874;2023-07-31T05:32:53;100506.66;;;25.98;64.99
46690;BME280;32423;45.398;10.874;2023-07-31T05:35:45;100510.19;;;25.79;66.24
46690;BME280;32423;45.398;10.874;2023-07-31T05:38:37;100512.13;;;25.82;65.84
46690;BME280;32423;45.398;10.874;2023-07-31T05:41:30;100506.53;;;25.82;66.01
46690;BME280;32423;45.398;10.874;2023-07-31T05:44:22;100507.03;;;25.77;66.11
46690;BME280;32423;45.398;10.874;2023-07-31T05:47:14;100510.84;;;25.86;65.89
46690;BME280;32423;45.398;10.874;2023-07-31T05:50:06;100513.94;;;25.92;65.37
46690;BME280;32423;45.398;10.874;2023-07-31T05:52:58;100513.00;;;25.75;66.52
46690;BME280;32423;45.398;10.874;2023-07-31T05:55:50;100516.09;;;25.58;67.21
46690;BME280;32423;45.398;10.874;2023-07-31T05:58:39;100516.56;;;25.52;67.26
46690;BME280;32423;45.398;10.874;2023-07-31T06:01:29;100514.63;;;25.49;67.59
46690;BME280;32423;45.398;10.874;2023-07-31T06:04:21;100518.59;;;25.48;67.69
46690;BME280;32423;45.398;10.874;2023-07-31T06:07:10;100528.53;;;25.49;67.94
46690;BME280;32423;45.398;10.874;2023-07-31T06:10:02;100530.09;;;25.50;67.90
46690;BME280;32423;45.398;10.874;2023-07-31T06:12:55;100532.06;;;25.53;68.11
46690;BME280;32423;45.398;10.874;2023-07-31T06:15:47;100524.13;;;25.52;68.23
46690;BME280;32423;45.398;10.874;2023-07-31T06:18:36;100528.06;;;25.54;67.99
46690;BME280;32423;45.398;10.874;2023-07-31T06:21:28;100537.59;;;25.57;68.11
46690;BME280;32423;45.398;10.874;2023-07-31T06:24:20;100539.97;;;25.59;68.11
46690;BME280;32423;45.398;10.874;2023-07-31T06:27:11;100533.94;;;25.60;68.00
46690;BME280;32423;45.398;10.874;2023-07-31T06:29:58;100539.09;;;25.62;67.79
46690;BME280;32423;45.398;10.874;2023-07-31T06:32:50;100540.28;;;25.64;67.70
46690;BME280;32423;45.398;10.874;2023-07-31T06:35:42;100543.38;;;25.70;67.52
46690;BME280;32423;45.398;10.874;2023-07-31T06:38:34;100548.09;;;25.73;67.43
46690;BME280;32423;45.398;10.874;2023-07-31T06:41:24;100540.09;;;25.75;67.12
46690;BME280;32423;45.398;10.874;2023-07-31T06:44:16;100543.63;;;25.79;66.92
46690;BME280;32423;45.398;10.874;2023-07-31T06:47:08;100545.19;;;25.80;66.10
46690;BME280;32423;45.398;10.874;2023-07-31T06:50:00;100547.91;;;25.83;65.77
46690;BME280;32423;45.398;10.874;2023-07-31T06:52:47;100550.63;;;25.87;65.34
46690;BME280;32423;45.398;10.874;2023-07-31T06:55:39;100542.66;;;25.89;65.06
46690;BME280;32423;45.398;10.874;2023-07-31T06:58:31;100548.94;;;25.93;65.01
46690;BME280;32423;45.398;10.874;2023-07-31T07:01:20;100545.38;;;25.92;65.24
46690;BME280;32423;45.398;10.874;2023-07-31T07:04:12;100553.66;;;25.96;65.36
46690;BME280;32423;45.398;10.874;2023-07-31T07:07:05;100540.81;;;26.02;65.24
46690;BME280;32423;45.398;10.874;2023-07-31T07:09:56;100541.63;;;26.03;62.95
46690;BME280;32423;45.398;10.874;2023-07-31T07:12:48;100545.91;;;26.07;62.99
46690;BME280;32423;45.398;10.874;2023-07-31T07:15:40;100543.84;;;26.11;64.06
46690;BME280;32423;45.398;10.874;2023-07-31T07:18:30;100556.53;;;26.16;64.14
46690;BME280;32423;45.398;10.874;2023-07-31T07:21:19;100558.03;;;26.20;63.98
46690;BME280;32423;45.398;10.874;2023-07-31T07:24:08;100555.63;;;26.22;64.64
46690;BME280;32423;45.398;10.874;2023-07-31T07:26:58;100551.22;;;26.25;64.38
46690;BME280;32423;45.398;10.874;2023-07-31T07:29:50;100555.59;;;26.26;64.62
46690;BME280;32423;45.398;10.874;2023-07-31T07:32:41;100560.72;;;26.27;63.81
46690;BME280;32423;45.398;10.874;2023-07-31T07:35:36;100556.31;;;26.30;63.85
46690;BME280;32423;45.398;10.874;2023-07-31T07:38:26;100553.06;;;26.31;63.07
46690;BME280;32423;45.398;10.874;2023-07-31T07:41:16;100553.31;;;26.41;63.06
46690;BME280;32423;45.398;10.874;2023-07-31T07:44:08;100553.63;;;26.46;63.37
46690;BME280;32423;45.398;10.874;2023-07-31T07:46:58;100548.75;;;26.50;62.60
46690;BME280;32423;45.398;10.874;2023-07-31T07:49:50;100554.25;;;26.54;62.21
46690;BME280;32423;45.398;10.874;2023-07-31T07:52:39;100543.75;;;26.61;61.96
46690;BME280;32423;45.398;10.874;2023-07-31T07:55:31;100549.97;;;26.69;61.86
46690;BME280;32423;45.398;10.874;2023-07-31T07:58:21;100550.25;;;26.74;60.84
46690;BME280;32423;45.398;10.874;2023-07-31T08:01:10;100553.13;;;26.71;60.37
46690;BME280;32423;45.398;10.874;2023-07-31T08:04:02;100548.75;;;26.70;61.11
46690;BME280;32423;45.398;10.874;2023-07-31T08:06:54;100546.66;;;26.74;60.90
46690;BME280;32423;45.398;10.874;2023-07-31T08:09:46;100547.47;;;26.74;61.90
46690;BME280;32423;45.398;10.874;2023-07-31T08:12:36;100535.38;;;26.81;61.11
46690;BME280;32423;45.398;10.874;2023-07-31T08:15:23;100544.47;;;26.85;59.79
46690;BME280;32423;45.398;10.874;2023-07-31T08:18:15;100543.09;;;26.93;59.88
46690;BME280;32423;45.398;10.874;2023-07-31T08:21:07;100540.31;;;26.93;60.78
46690;BME280;32423;45.398;10.874;2023-07-31T08:23:57;100542.41;;;26.89;61.34
46690;BME280;32423;45.398;10.874;2023-07-31T08:26:49;100544.81;;;26.87;61.77
46690;BME280;32423;45.398;10.874;2023-07-31T08:29:41;100557.53;;;27.08;59.20
46690;BME280;32423;45.398;10.874;2023-07-31T08:32:33;100562.19;;;27.14;59.84
46690;BME280;32423;45.398;10.874;2023-07-31T08:35:25;100559.97;;;27.26;57.01
46690;BME280;32423;45.398;10.874;2023-07-31T08:38:18;100558.47;;;27.21;59.29
46690;BME280;32423;45.398;10.874;2023-07-31T08:41:10;100556.25;;;27.12;59.14
46690;BME280;32423;45.398;10.874;2023-07-31T08:44:02;100564.47;;;27.19;59.48
46690;BME280;32423;45.398;10.874;2023-07-31T08:46:52;100555.44;;;27.32;59.32
46690;BME280;32423;45.398;10.874;2023-07-31T08:49:44;100558.81;;;27.59;57.54
46690;BME280;32423;45.398;10.874;2023-07-31T08:52:38;100551.88;;;27.47;58.35
46690;BME280;32423;45.398;10.874;2023-07-31T08:55:27;100551.34;;;27.36;58.16
46690;BME280;32423;45.398;10.874;2023-07-31T08:58:21;100553.41;;;27.52;57.52
46690;BME280;32423;45.398;10.874;2023-07-31T09:01:14;100553.34;;;27.72;56.32
46690;BME280;32423;45.398;10.874;2023-07-31T09:04:07;100553.66;;;27.90;54.83
46690;BME280;32423;45.398;10.874;2023-07-31T09:07:01;100548.94;;;28.03;53.46
46690;BME280;32423;45.398;10.874;2023-07-31T09:09:54;100538.34;;;28.11;53.13
46690;BME280;32423;45.398;10.874;2023-07-31T09:12:46;100544.47;;;28.38;50.95
46690;BME280;32423;45.398;10.874;2023-07-31T09:15:33;100534.84;;;28.39;50.71
46690;BME280;32423;45.398;10.874;2023-07-31T09:18:25;100531.84;;;28.46;51.08
46690;BME280;32423;45.398;10.874;2023-07-31T09:21:15;100529.25;;;28.39;49.96
46690;BME280;32423;45.398;10.874;2023-07-31T09:24:04;100527.84;;;28.31;52.59
46690;BME280;32423;45.398;10.874;2023-07-31T09:26:54;100519.81;;;28.33;51.38
46690;BME280;32423;45.398;10.874;2023-07-31T09:29:49;100526.63;;;28.61;48.85
46690;BME280;32423;45.398;10.874;2023-07-31T09:32:48;100519.78;;;28.49;50.28
46690;BME280;32423;45.398;10.874;2023-07-31T09:35:37;100516.63;;;28.18;52.04
46690;BME280;32423;45.398;10.874;2023-07-31T09:38:29;100519.00;;;28.03;52.76
46690;BME280;32423;45.398;10.874;2023-07-31T09:41:19;100520.53;;;28.04;50.33
46690;BME280;32423;45.398;10.874;2023-07-31T09:44:08;100513.16;;;28.43;48.43
46690;BME280;32423;45.398;10.874;2023-07-31T09:46:57;100522.06;;;28.67;47.91
46690;BME280;32423;45.398;10.874;2023-07-31T09:49:47;100524.63;;;28.61;48.03
46690;BME280;32423;45.398;10.874;2023-07-31T09:52:39;100523.75;;;28.64;49.24
46690;BME280;32423;45.398;10.874;2023-07-31T09:55:28;100520.91;;;28.93;47.93
46690;BME280;32423;45.398;10.874;2023-07-31T09:58:18;100528.19;;;28.90;48.26
46690;BME280;32423;45.398;10.874;2023-07-31T10:01:03;100514.09;;;28.94;47.95
46690;BME280;32423;45.398;10.874;2023-07-31T10:03:55;100516.66;;;29.01;47.73
46690;BME280;32423;45.398;10.874;2023-07-31T10:06:49;100512.13;;;29.32;47.75
46690;BME280;32423;45.398;10.874;2023-07-31T10:09:41;100515.69;;;29.20;47.50
46690;BME280;32423;45.398;10.874;2023-07-31T10:12:31;100520.28;;;29.52;45.51
46690;BME280;32423;45.398;10.874;2023-07-31T10:15:23;100512.34;;;29.51;46.13
46690;BME280;32423;45.398;10.874;2023-07-31T10:18:18;100507.09;;;29.40;47.03
46690;BME280;32423;45.398;10.874;2023-07-31T10:21:07;100506.25;;;29.27;47.19
46690;BME280;32423;45.398;10.874;2023-07-31T10:23:57;100507.84;;;29.15;48.00
46690;BME280;32423;45.398;10.874;2023-07-31T10:26:49;100501.19;;;29.72;46.00
46690;BME280;32423;45.398;10.874;2023-07-31T10:29:43;100504.13;;;29.82;46.25
46690;BME280;32423;45.398;10.874;2023-07-31T10:32:37;100503.25;;;29.59;46.86
46690;BME280;32423;45.398;10.874;2023-07-31T10:35:29;100494.06;;;29.46;47.36
46690;BME280;32423;45.398;10.874;2023-07-31T10:38:23;100503.13;;;29.63;47.85
46690;BME280;32423;45.398;10.874;2023-07-31T10:41:15;100505.00;;;29.79;46.67
46690;BME280;32423;45.398;10.874;2023-07-31T10:44:07;100500.75;;;29.61;45.70
46690;BME280;32423;45.398;10.874;2023-07-31T10:46:57;100499.19;;;29.73;45.21
46690;BME280;32423;45.398;10.874;2023-07-31T10:49:49;100487.94;;;29.86;45.17
46690;BME280;32423;45.398;10.874;2023-07-31T10:52:39;100495.31;;;30.05;44.72
46690;BME280;32423;45.398;10.874;2023-07-31T10:55:32;100487.34;;;30.03;44.87
46690;BME280;32423;45.398;10.874;2023-07-31T10:58:25;100481.69;;;30.16;43.53
46690;BME280;32423;45.398;10.874;2023-07-31T11:01:12;100494.88;;;30.06;44.45
46690;BME280;32423;45.398;10.874;2023-07-31T11:04:07;100492.31;;;29.87;45.27
46690;BME280;32423;45.398;10.874;2023-07-31T11:07:02;100496.19;;;29.29;46.65
46690;BME280;32423;45.398;10.874;2023-07-31T11:09:54;100496.72;;;29.12;47.70
46690;BME280;32423;45.398;10.874;2023-07-31T11:12:44;100488.69;;;29.39;46.91
46690;BME280;32423;45.398;10.874;2023-07-31T11:15:37;100499.13;;;30.11;45.51
46690;BME280;32423;45.398;10.874;2023-07-31T11:18:26;100502.16;;;30.04;44.83
46690;BME280;32423;45.398;10.874;2023-07-31T11:21:19;100489.25;;;30.28;44.60
46690;BME280;32423;45.398;10.874;2023-07-31T11:24:09;100487.28;;;30.50;44.07
46690;BME280;32423;45.398;10.874;2023-07-31T11:27:07;100491.63;;;30.30;44.42
46690;BME280;32423;45.398;10.874;2023-07-31T11:30:03;100485.41;;;30.13;45.06
46690;BME280;32423;45.398;10.874;2023-07-31T11:32:56;100478.75;;;30.20;43.81
46690;BME280;32423;45.398;10.874;2023-07-31T11:35:48;100482.09;;;30.27;44.87
46690;BME280;32423;45.398;10.874;2023-07-31T11:38:40;100479.09;;;30.43;44.54
46690;BME280;32423;45.398;10.874;2023-07-31T11:41:29;100467.13;;;30.08;45.46
46690;BME280;32423;45.398;10.874;2023-07-31T11:44:19;100464.94;;;30.25;45.00
46690;BME280;32423;45.398;10.874;2023-07-31T11:47:08;100468.59;;;30.35;45.13
46690;BME280;32423;45.398;10.874;2023-07-31T11:50:00;100460.69;;;30.42;45.06
46690;BME280;32423;45.398;10.874;2023-07-31T11:52:50;100463.69;;;30.48;43.70
46690;BME280;32423;45.398;10.874;2023-07-31T11:55:44;100458.53;;;30.25;44.50
46690;BME280;32423;45.398;10.874;2023-07-31T11:58:34;100456.44;;;30.16;45.24
46690;BME280;32423;45.398;10.874;2023-07-31T12:01:25;100464.09;;;29.68;46.80
46690;BME280;32423;45.398;10.874;2023-07-31T12:04:17;100456.44;;;29.82;46.06
46690;BME280;32423;45.398;10.874;2023-07-31T12:07:09;100456.59;;;29.65;46.74
46690;BME280;32423;45.398;10.874;2023-07-31T12:10:01;100444.97;;;29.29;48.10
46690;BME280;32423;45.398;10.874;2023-07-31T12:13:06;100434.31;;;29.11;48.61
46690;BME280;32423;45.398;10.874;2023-07-31T12:15:58;100433.25;;;29.68;47.39
46690;BME280;32423;45.398;10.874;2023-07-31T12:18:51;100426.56;;;30.00;45.67
46690;BME280;32423;45.398;10.874;2023-07-31T12:21:43;100433.53;;;30.17;46.50
46690;BME280;32423;45.398;10.874;2023-07-31T12:24:35;100423.81;;;30.31;44.69
46690;BME280;32423;45.398;10.874;2023-07-31T12:27:28;100417.81;;;30.42;44.37
46690;BME280;32423;45.398;10.874;2023-07-31T12:30:31;100406.22;;;30.52;44.23
46690;BME280;32423;45.398;10.874;2023-07-31T12:33:21;100395.47;;;30.38;44.39
46690;BME280;32423;45.398;10.874;2023-07-31T12:36:14;100404.88;;;30.23;44.63
46690;BME280;32423;45.398;10.874;2023-07-31T12:39:06;100402.16;;;30.10;45.05
46690;BME280;32423;45.398;10.874;2023-07-31T12:41:58;100392.25;;;29.96;44.92
46690;BME280;32423;45.398;10.874;2023-07-31T12:44:50;100391.00;;;30.19;43.24
46690;BME280;32423;45.398;10.874;2023-07-31T12:47:42;100390.94;;;30.32;42.45
46690;BME280;32423;45.398;10.874;2023-07-31T12:50:34;100386.09;;;30.54;42.47
46690;BME280;32423;45.398;10.874;2023-07-31T12:53:23;100383.47;;;30.38;42.00
46690;BME280;32423;45.398;10.874;2023-07-31T12:56:15;100378.66;;;30.38;43.53
46690;BME280;32423;45.398;10.874;2023-07-31T12:59:07;100364.47;;;30.11;43.76
46690;BME280;32423;45.398;10.874;2023-07-31T13:01:59;100370.28;;;30.16;42.63
46690;BME280;32423;45.398;10.874;2023-07-31T13:04:51;100366.75;;;30.03;43.78
46690;BME280;32423;45.398;10.874;2023-07-31T13:07:41;100362.34;;;29.81;45.51
46690;BME280;32423;45.398;10.874;2023-07-31T13:10:28;100353.97;;;29.68;45.06
46690;BME280;32423;45.398;10.874;2023-07-31T13:13:20;100350.94;;;29.75;45.01
46690;BME280;32423;45.398;10.874;2023-07-31T13:16:12;100344.44;;;30.22;43.43
46690;BME280;32423;45.398;10.874;2023-07-31T13:19:01;100357.63;;;30.43;43.84
46690;BME280;32423;45.398;10.874;2023-07-31T13:21:54;100353.56;;;30.66;42.72
46690;BME280;32423;45.398;10.874;2023-07-31T13:24:46;100342.34;;;30.13;44.49
46690;BME280;32423;45.398;10.874;2023-07-31T13:27:38;100341.50;;;29.82;45.64
46690;BME280;32423;45.398;10.874;2023-07-31T13:30:30;100329.97;;;29.67;42.48
46690;BME280;32423;45.398;10.874;2023-07-31T13:33:20;100325.75;;;29.62;45.54
46690;BME280;32423;45.398;10.874;2023-07-31T13:36:07;100324.47;;;29.42;46.98
46690;BME280;32423;45.398;10.874;2023-07-31T13:38:59;100322.44;;;29.55;45.42
46690;BME280;32423;45.398;10.874;2023-07-31T13:41:48;100322.53;;;29.51;45.50
46690;BME280;32423;45.398;10.874;2023-07-31T13:44:38;100320.09;;;29.75;45.64
46690;BME280;32423;45.398;10.874;2023-07-31T13:47:30;100315.50;;;29.47;46.56
46690;BME280;32423;45.398;10.874;2023-07-31T13:50:22;100320.75;;;29.79;45.69
46690;BME280;32423;45.398;10.874;2023-07-31T13:53:14;100315.41;;;29.94;43.77
46690;BME280;32423;45.398;10.874;2023-07-31T13:56:06;100317.63;;;30.21;43.25
46690;BME280;32423;45.398;10.874;2023-07-31T13:58:58;100316.50;;;30.18;42.96
46690;BME280;32423;45.398;10.874;2023-07-31T14:01:47;100314.28;;;30.44;41.98
46690;BME280;32423;45.398;10.874;2023-07-31T14:04:35;100311.19;;;30.42;42.50
46690;BME280;32423;45.398;10.874;2023-07-31T14:07:27;100305.69;;;30.38;43.17
46690;BME280;32423;45.398;10.874;2023-07-31T14:10:17;100310.13;;;30.48;41.95
46690;BME280;32423;45.398;10.874;2023-07-31T14:13:04;100308.78;;;30.31;42.09
46690;BME280;32423;45.398;10.874;2023-07-31T14:15:56;100306.00;;;30.40;42.67
46690;BME280;32423;45.398;10.874;2023-07-31T14:18:47;100306.94;;;30.06;43.97
46690;BME280;32423;45.398;10.874;2023-07-31T14:21:39;100303.19;;;29.88;43.78
46690;BME280;32423;45.398;10.874;2023-07-31T14:24:31;100302.88;;;30.07;43.01
46690;BME280;32423;45.398;10.874;2023-07-31T14:27:23;100301.19;;;30.41;43.65
46690;BME280;32423;45.398;10.874;2023-07-31T14:30:15;100302.84;;;30.29;43.11
46690;BME280;32423;45.398;10.874;2023-07-31T14:33:05;100290.97;;;30.47;41.89
46690;BME280;32423;45.398;10.874;2023-07-31T14:35:56;100295.56;;;30.41;43.75
46690;BME280;32423;45.398;10.874;2023-07-31T14:38:48;100298.00;;;30.30;43.78
46690;BME280;32423;45.398;10.874;2023-07-31T14:41:40;100297.19;;;30.51;43.39
46690;BME280;32423;45.398;10.874;2023-07-31T14:44:32;100288.19;;;30.56;43.94
46690;BME280;32423;45.398;10.874;2023-07-31T14:47:22;100289.19;;;30.40;44.14
46690;BME280;32423;45.398;10.874;2023-07-31T14:50:14;100287.31;;;30.37;43.80
46690;BME280;32423;45.398;10.874;2023-07-31T14:53:06;100296.50;;;30.07;44.59
46690;BME280;32423;45.398;10.874;2023-07-31T14:55:55;100285.16;;;30.10;44.36
46690;BME280;32423;45.398;10.874;2023-07-31T14:58:45;100287.91;;;30.01;44.85
46690;BME280;32423;45.398;10.874;2023-07-31T15:01:37;100294.06;;;30.18;44.60
46690;BME280;32423;45.398;10.874;2023-07-31T15:04:26;100287.75;;;30.05;44.90
46690;BME280;32423;45.398;10.874;2023-07-31T15:07:16;100281.19;;;29.99;45.36
46690;BME280;32423;45.398;10.874;2023-07-31T15:10:05;100281.16;;;29.77;45.73
46690;BME280;32423;45.398;10.874;2023-07-31T15:12:54;100274.72;;;29.89;45.34
46690;BME280;32423;45.398;10.874;2023-07-31T15:15:46;100270.97;;;30.14;44.40
46690;BME280;32423;45.398;10.874;2023-07-31T15:18:38;100277.22;;;30.18;43.63
46690;BME280;32423;45.398;10.874;2023-07-31T15:21:30;100271.56;;;30.09;44.87
46690;BME280;32423;45.398;10.874;2023-07-31T15:24:20;100260.13;;;29.94;44.99
46690;BME280;32423;45.398;10.874;2023-07-31T15:27:10;100265.31;;;30.05;45.40
46690;BME280;32423;45.398;10.874;2023-07-31T15:30:00;100258.75;;;29.99;45.65
46690;BME280;32423;45.398;10.874;2023-07-31T15:32:53;100258.09;;;29.95;45.05
46690;BME280;32423;45.398;10.874;2023-07-31T15:35:45;100257.38;;;29.82;46.63
46690;BME280;32423;45.398;10.874;2023-07-31T15:38:37;100251.25;;;29.74;46.39
46690;BME280;32423;45.398;10.874;2023-07-31T15:41:26;100245.06;;;29.79;45.85
46690;BME280;32423;45.398;10.874;2023-07-31T15:44:18;100241.06;;;29.67;45.81
46690;BME280;32423;45.398;10.874;2023-07-31T15:47:10;100244.06;;;29.73;45.86
46690;BME280;32423;45.398;10.874;2023-07-31T15:50:00;100240.41;;;29.85;45.12
46690;BME280;32423;45.398;10.874;2023-07-31T15:52:50;100232.16;;;29.82;44.87
46690;BME280;32423;45.398;10.874;2023-07-31T15:55:42;100230.19;;;29.69;47.12
46690;BME280;32423;45.398;10.874;2023-07-31T15:58:34;100228.25;;;29.57;46.46
46690;BME280;32423;45.398;10.874;2023-07-31T16:01:23;100226.75;;;29.65;45.26
46690;BME280;32423;45.398;10.874;2023-07-31T16:04:16;100230.78;;;29.64;45.44
46690;BME280;32423;45.398;10.874;2023-07-31T16:07:05;100232.72;;;29.76;46.44
46690;BME280;32423;45.398;10.874;2023-07-31T16:09:57;100228.97;;;29.70;46.48
46690;BME280;32423;45.398;10.874;2023-07-31T16:12:47;100226.22;;;29.80;45.04
46690;BME280;32423;45.398;10.874;2023-07-31T16:15:36;100225.41;;;29.79;45.74
46690;BME280;32423;45.398;10.874;2023-07-31T16:18:26;100224.97;;;29.81;46.43
46690;BME280;32423;45.398;10.874;2023-07-31T16:21:18;100220.59;;;29.80;46.63
46690;BME280;32423;45.398;10.874;2023-07-31T16:24:10;100227.59;;;29.75;46.66
46690;BME280;32423;45.398;10.874;2023-07-31T16:27:02;100220.84;;;29.72;46.05
46690;BME280;32423;45.398;10.874;2023-07-31T16:29:54;100216.03;;;29.73;46.46
46690;BME280;32423;45.398;10.874;2023-07-31T16:32:46;100216.97;;;29.70;46.38
46690;BME280;32423;45.398;10.874;2023-07-31T16:35:38;100222.75;;;29.75;45.82
46690;BME280;32423;45.398;10.874;2023-07-31T16:38:31;100217.16;;;29.75;45.47
46690;BME280;32423;45.398;10.874;2023-07-31T16:41:20;100212.78;;;29.74;45.57
46690;BME280;32423;45.398;10.874;2023-07-31T16:44:12;100217.88;;;29.67;46.04
46690;BME280;32423;45.398;10.874;2023-07-31T16:47:04;100222.88;;;29.72;45.90
46690;BME280;32423;45.398;10.874;2023-07-31T16:49:56;100220.84;;;29.72;45.46
46690;BME280;32423;45.398;10.874;2023-07-31T16:52:48;100220.06;;;29.72;45.47
46690;BME280;32423;45.398;10.874;2023-07-31T16:55:41;100217.88;;;29.67;46.34
46690;BME280;32423;45.398;10.874;2023-07-31T16:58:30;100217.59;;;29.74;45.90
46690;BME280;32423;45.398;10.874;2023-07-31T17:01:25;100213.97;;;29.64;46.39
46690;BME280;32423;45.398;10.874;2023-07-31T17:04:19;100219.56;;;29.64;45.89
46690;BME280;32423;45.398;10.874;2023-07-31T17:07:11;100219.13;;;29.66;46.39
46690;BME280;32423;45.398;10.874;2023-07-31T17:10:03;100218.38;;;29.74;46.79
46690;BME280;32423;45.398;10.874;2023-07-31T17:12:48;100207.13;;;29.65;47.84
46690;BME280;32423;45.398;10.874;2023-07-31T17:15:40;100214.63;;;29.68;48.44
46690;BME280;32423;45.398;10.874;2023-07-31T17:18:32;100204.59;;;29.58;48.84
46690;BME280;32423;45.398;10.874;2023-07-31T17:21:22;100204.44;;;29.62;48.19
46690;BME280;32423;45.398;10.874;2023-07-31T17:24:11;100204.34;;;29.65;47.64
46690;BME280;32423;45.398;10.874;2023-07-31T17:27:01;100214.88;;;29.61;48.23
46690;BME280;32423;45.398;10.874;2023-07-31T17:29:53;100216.84;;;29.52;48.48
46690;BME280;32423;45.398;10.874;2023-07-31T17:32:47;100221.41;;;29.58;47.68
46690;BME280;32423;45.398;10.874;2023-07-31T17:35:39;100223.13;;;29.56;48.16
46690;BME280;32423;45.398;10.874;2023-07-31T17:38:31;100216.97;;;29.48;48.72
46690;BME280;32423;45.398;10.874;2023-07-31T17:41:21;100222.59;;;29.48;48.30
46690;BME280;32423;45.398;10.874;2023-07-31T17:44:13;100224.09;;;29.40;48.50
46690;BME280;32423;45.398;10.874;2023-07-31T17:47:00;100232.50;;;29.40;48.65
46690;BME280;32423;45.398;10.874;2023-07-31T17:49:52;100222.97;;;29.38;48.97
46690;BME280;32423;45.398;10.874;2023-07-31T17:52:44;100222.66;;;29.36;48.43
46690;BME280;32423;45.398;10.874;2023-07-31T17:55:34;100220.75;;;29.32;48.65
46690;BME280;32423;45.398;10.874;2023-07-31T17:58:24;100227.78;;;29.37;48.76
46690;BME280;32423;45.398;10.874;2023-07-31T18:01:16;100221.75;;;29.39;48.56
46690;BME280;32423;45.398;10.874;2023-07-31T18:04:08;100229.22;;;29.42;48.52
46690;BME280;32423;45.398;10.874;2023-07-31T18:07:00;100231.56;;;29.43;48.47
46690;BME280;32423;45.398;10.874;2023-07-31T18:09:47;100235.94;;;29.44;48.65
46690;BME280;32423;45.398;10.874;2023-07-31T18:12:39;100245.13;;;29.45;48.65
46690;BME280;32423;45.398;10.874;2023-07-31T18:15:31;100238.31;;;29.46;48.70
46690;BME280;32423;45.398;10.874;2023-07-31T18:18:18;100235.94;;;29.44;48.99
46690;BME280;32423;45.398;10.874;2023-07-31T18:21:10;100242.34;;;29.45;48.75
46690;BME280;32423;45.398;10.874;2023-07-31T18:24:02;100239.97;;;29.43;48.58
46690;BME280;32423;45.398;10.874;2023-07-31T18:26:54;100239.97;;;29.43;48.73
46690;BME280;32423;45.398;10.874;2023-07-31T18:29:46;100242.13;;;29.39;48.79
46690;BME280;32423;45.398;10.874;2023-07-31T18:32:38;100250.69;;;29.36;49.79
46690;BME280;32423;45.398;10.874;2023-07-31T18:35:27;100253.78;;;29.38;49.39
46690;BME280;32423;45.398;10.874;2023-07-31T18:38:17;100261.41;;;29.37;49.74
46690;BME280;32423;45.398;10.874;2023-07-31T18:41:09;100261.88;;;29.36;49.42
46690;BME280;32423;45.398;10.874;2023-07-31T18:43:59;100261.88;;;29.36;49.13
46690;BME280;32423;45.398;10.874;2023-07-31T18:46:48;100267.94;;;29.34;49.56
46690;BME280;32423;45.398;10.874;2023-07-31T18:49:40;100264.00;;;29.31;49.88
46690;BME280;32423;45.398;10.874;2023-07-31T18:52:32;100275.66;;;29.30;49.60
46690;BME280;32423;45.398;10.874;2023-07-31T18:55:22;100276.88;;;29.29;49.45
46690;BME280;32423;45.398;10.874;2023-07-31T18:58:11;100264.91;;;29.28;49.49
46690;BME280;32423;45.398;10.874;2023-07-31T19:01:03;100260.97;;;29.26;49.83
46690;BME280;32423;45.398;10.874;2023-07-31T19:03:55;100269.94;;;29.21;50.06
46690;BME280;32423;45.398;10.874;2023-07-31T19:06:47;100272.09;;;29.17;50.16
46690;BME280;32423;45.398;10.874;2023-07-31T19:09:37;100266.19;;;29.15;50.71
46690;BME280;32423;45.398;10.874;2023-07-31T19:12:29;100275.03;;;29.13;50.31
46690;BME280;32423;45.398;10.874;2023-07-31T19:15:15;100268.31;;;29.11;50.46
46690;BME280;32423;45.398;10.874;2023-07-31T19:18:05;100274.25;;;29.13;50.31
46690;BME280;32423;45.398;10.874;2023-07-31T19:20:57;100270.22;;;29.14;49.60
46690;BME280;32423;45.398;10.874;2023-07-31T19:23:49;100269.44;;;29.13;49.46
46690;BME280;32423;45.398;10.874;2023-07-31T19:26:39;100273.59;;;29.09;49.50
46690;BME280;32423;45.398;10.874;2023-07-31T19:29:28;100274.47;;;29.06;49.63
46690;BME280;32423;45.398;10.874;2023-07-31T19:32:20;100276.97;;;29.04;50.15
46690;BME280;32423;45.398;10.874;2023-07-31T19:35:09;100273.97;;;28.98;50.47
46690;BME280;32423;45.398;10.874;2023-07-31T19:38:01;100286.81;;;28.96;50.55